Time;durP1;ratioP1;P1;durP2;ratioP2;P2;SDS_P1;SDS_P2;PMS_P1;PMS_P2;Temp;Humidity;BMP_temperature;BMP_pressure;BME280_temperature;BME280_humidity;BME280_pressure;Samples;Min_cycle;Max_cycle;Signal;HPM_P1;HPM_P2
2022/06/25 00:01:25;;;;;;;1.73;1.70;;;;;;;17.17;100.00;96660.88;5030817;28;20286;-65
2022/06/25 00:03:53;;;;;;;1.67;1.67;;;;;;;17.19;100.00;96671.31;5027205;28;20200;-65
2022/06/25 00:06:22;;;;;;;1.83;1.80;;;;;;;17.19;100.00;96665.97;5032887;28;20230;-64
2022/06/25 00:08:54;;;;;;;1.43;1.43;;;;;;;17.21;100.00;96680.75;4997281;28;20209;-64
2022/06/25 00:14:10;;;;;;;1.40;1.40;;;;;;;17.00;100.00;96678.72;4986882;28;20392;-64
2022/06/25 00:16:40;;;;;;;1.40;1.30;;;;;;;16.92;100.00;96682.56;5025580;28;20281;-67
2022/06/25 00:19:08;;;;;;;2.00;1.53;;;;;;;16.96;100.00;96680.22;5028080;28;20215;-67
2022/06/25 00:21:36;;;;;;;1.40;1.30;;;;;;;16.92;100.00;96686.03;5026831;28;20254;-63
2022/06/25 00:24:05;;;;;;;1.20;1.20;;;;;;;17.03;100.00;96686.25;5003443;28;20262;-65
2022/06/25 00:26:33;;;;;;;1.50;1.40;;;;;;;16.91;100.00;96686.28;5025842;28;20409;-65
2022/06/25 00:29:01;;;;;;;1.00;1.00;;;;;;;16.96;100.00;96683.72;4987596;28;20443;-63
2022/06/25 00:31:29;;;;;;;1.27;1.27;;;;;;;16.98;100.00;96686.16;5023144;28;20456;-66
2022/06/25 00:33:59;;;;;;;1.83;1.17;;;;;;;16.92;100.00;96691.38;5024995;28;20322;-67
2022/06/25 00:36:27;;;;;;;1.10;1.10;;;;;;;16.75;100.00;96685.97;5028053;28;20324;-66
2022/06/25 00:38:55;;;;;;;1.10;1.10;;;;;;;16.72;100.00;96696.34;5002198;28;20672;-66
2022/06/25 00:41:23;;;;;;;1.20;1.20;;;;;;;16.72;100.00;96699.81;4996703;28;20295;-64
2022/06/25 00:43:52;;;;;;;1.53;1.43;;;;;;;16.71;100.00;96700.06;5025297;28;20297;-67
2022/06/25 00:46:22;;;;;;;1.10;1.10;;;;;;;16.69;100.00;96704.84;4982154;28;20258;-66
2022/06/25 00:48:51;;;;;;;1.27;1.20;;;;;;;16.52;100.00;96696.72;5029121;28;20611;-65
2022/06/25 00:51:22;;;;;;;1.10;1.10;;;;;;;16.57;100.00;96700.28;5027055;28;20485;-66
2022/06/25 00:53:51;;;;;;;1.03;1.03;;;;;;;16.56;100.00;96704.00;4997509;28;20895;-64
2022/06/25 00:56:20;;;;;;;1.30;1.30;;;;;;;16.55;100.00;96705.06;5026251;28;20392;-65
2022/06/25 00:58:51;;;;;;;1.30;1.27;;;;;;;16.48;100.00;96702.53;5028608;28;20295;-66
2022/06/25 01:01:19;;;;;;;1.40;1.40;;;;;;;16.38;100.00;96702.28;4978236;28;20236;-66
2022/06/25 01:03:48;;;;;;;1.57;1.47;;;;;;;16.35;100.00;96706.25;4975198;28;20296;-66
2022/06/25 01:06:16;;;;;;;1.20;1.20;;;;;;;16.30;100.00;96710.66;5007021;28;20265;-65
2022/06/25 01:08:46;;;;;;;2.27;1.23;;;;;;;16.29;100.00;96711.69;5025431;28;20213;-65
2022/06/25 01:11:14;;;;;;;1.13;1.13;;;;;;;16.35;100.00;96718.78;5008590;28;20200;-66
2022/06/25 01:13:43;;;;;;;1.30;1.20;;;;;;;16.29;100.00;96715.19;5026403;28;20214;-65
2022/06/25 01:16:11;;;;;;;1.30;1.30;;;;;;;16.38;100.00;96715.66;5026964;28;20255;-66
2022/06/25 01:18:39;;;;;;;1.10;1.10;;;;;;;16.42;100.00;96713.34;4982743;28;21414;-66
2022/06/25 01:21:08;;;;;;;1.27;1.27;;;;;;;16.27;100.00;96714.59;5024638;28;20627;-65
2022/06/25 01:23:38;;;;;;;1.97;1.57;;;;;;;16.32;100.00;96716.56;5024402;28;20525;-64
2022/06/25 01:26:06;;;;;;;1.50;1.40;;;;;;;16.40;100.00;96715.44;5028855;28;20254;-66
2022/06/25 01:28:35;;;;;;;1.13;1.13;;;;;;;16.35;100.00;96719.63;5011729;28;20215;-65
2022/06/25 01:31:03;;;;;;;2.10;1.97;;;;;;;16.36;100.00;96720.41;5029252;28;20231;-65
2022/06/25 01:33:31;;;;;;;1.37;1.37;;;;;;;16.37;100.00;96724.72;5027470;28;20433;-66
2022/06/25 01:35:59;;;;;;;1.40;1.30;;;;;;;16.24;100.00;96728.41;4984835;28;20322;-65
2022/06/25 01:38:28;;;;;;;1.67;1.57;;;;;;;16.11;100.00;96732.16;5029133;28;20305;-63
2022/06/25 01:40:57;;;;;;;1.60;1.50;;;;;;;16.36;100.00;96731.09;5026893;28;20211;-65
2022/06/25 01:43:26;;;;;;;1.90;1.70;;;;;;;16.27;100.00;96732.50;5006656;28;20297;-64
2022/06/25 01:45:54;;;;;;;1.30;1.30;;;;;;;16.29;100.00;96739.25;5028867;28;20227;-65
2022/06/25 01:48:22;;;;;;;1.50;1.40;;;;;;;16.17;100.00;96739.25;5032628;28;20240;-68
2022/06/25 01:50:50;;;;;;;1.30;1.30;;;;;;;16.15;100.00;96743.19;4984664;28;20870;-65
2022/06/25 01:53:19;;;;;;;1.50;1.37;;;;;;;16.30;100.00;96740.06;5028851;28;20207;-66
2022/06/25 01:55:47;;;;;;;1.40;1.30;;;;;;;16.25;100.00;96745.28;5029784;28;20231;-64
2022/06/25 01:58:17;;;;;;;1.63;1.63;;;;;;;16.10;100.00;96745.72;5028731;28;20199;-64
2022/06/25 02:00:45;;;;;;;1.27;1.27;;;;;;;16.15;100.00;96744.00;5010939;28;20634;-64
2022/06/25 02:03:14;;;;;;;1.50;1.40;;;;;;;16.11;100.00;96734.81;5029833;28;20466;-65
2022/06/25 02:05:59;;;;;;;1.43;1.33;;;;;;;16.05;100.00;96735.72;5025763;28;20235;-65
2022/06/25 02:08:30;;;;;;;1.23;1.23;;;;;;;16.06;100.00;96740.03;5030396;28;20261;-63
2022/06/25 02:11:00;;;;;;;1.40;1.40;;;;;;;15.97;100.00;96752.09;5027391;28;20584;-64
2022/06/25 02:13:30;;;;;;;1.27;1.27;;;;;;;15.97;100.00;96752.09;5031574;28;20666;-65
2022/06/25 02:15:58;;;;;;;1.43;1.43;;;;;;;15.94;100.00;96739.19;5008005;28;20337;-66
2022/06/25 02:18:26;;;;;;;1.97;1.50;;;;;;;15.90;100.00;96753.00;5030950;28;20219;-65
2022/06/25 02:20:55;;;;;;;1.63;1.53;;;;;;;15.92;100.00;96744.78;5030476;28;20334;-65
2022/06/25 02:23:23;;;;;;;1.17;1.17;;;;;;;15.92;100.00;96755.47;4988283;28;20211;-65
2022/06/25 02:25:52;;;;;;;1.50;1.50;;;;;;;15.83;100.00;96749.59;5027525;28;20706;-64
2022/06/25 02:28:20;;;;;;;1.97;1.50;;;;;;;15.92;100.00;96750.13;5032202;28;20196;-67
2022/06/25 02:30:50;;;;;;;1.83;1.73;;;;;;;15.94;100.00;96753.38;5022900;28;20207;-65
2022/06/25 02:33:19;;;;;;;1.40;1.30;;;;;;;15.79;100.00;96759.13;5022220;28;20203;-64
2022/06/25 02:35:48;;;;;;;1.00;0.90;;;;;;;15.92;100.00;96763.47;5028267;28;20228;-65
2022/06/25 02:38:16;;;;;;;1.30;1.30;;;;;;;15.91;100.00;96765.31;4985996;28;20337;-67
2022/06/25 02:40:47;;;;;;;1.57;1.47;;;;;;;15.83;100.00;96765.63;5029004;28;20711;-65
2022/06/25 02:43:16;;;;;;;1.47;1.40;;;;;;;15.89;100.00;96761.25;5030631;28;20336;-66
2022/06/25 02:45:44;;;;;;;1.20;1.20;;;;;;;15.83;100.00;96770.97;5029836;28;20269;-65
2022/06/25 02:48:14;;;;;;;1.50;1.40;;;;;;;15.83;100.00;96768.31;5008716;28;20249;-67
2022/06/25 02:50:43;;;;;;;2.03;1.63;;;;;;;15.74;100.00;96778.47;5029185;28;20300;-66
2022/06/25 02:53:11;;;;;;;2.43;2.33;;;;;;;15.65;100.00;96766.50;4984310;28;21224;-67
2022/06/25 03:01:11;;;;;;;2.03;1.67;;;;;;;15.59;100.00;96781.56;5026618;28;20516;-65
2022/06/25 03:03:41;;;;;;;1.70;1.60;;;;;;;15.73;100.00;96776.06;5010097;28;20339;-67
2022/06/25 03:06:09;;;;;;;1.40;1.33;;;;;;;15.54;100.00;96777.97;5027745;28;20297;-67
2022/06/25 03:08:37;;;;;;;1.63;1.60;;;;;;;15.43;100.00;96780.31;5029037;28;20234;-66
2022/06/25 03:11:07;;;;;;;1.73;1.63;;;;;;;15.39;100.00;96781.81;4924647;28;21161;-65
2022/06/25 03:13:36;;;;;;;1.63;1.57;;;;;;;15.37;100.00;96775.88;5002210;28;21002;-66
2022/06/25 03:16:08;;;;;;;2.60;1.93;;;;;;;15.32;100.00;96783.75;5006824;28;20327;-65
2022/06/25 03:18:36;;;;;;;1.83;1.77;;;;;;;15.30;100.00;96783.97;5024618;28;20278;-64
2022/06/25 03:21:07;;;;;;;1.90;1.53;;;;;;;15.25;100.00;96786.50;5007819;28;20296;-64
2022/06/25 03:23:35;;;;;;;1.80;1.70;;;;;;;15.28;100.00;96783.38;5030785;28;20486;-66
2022/06/25 03:26:07;;;;;;;2.20;1.70;;;;;;;15.28;100.00;96787.91;5014564;28;20239;-65
2022/06/25 03:28:36;;;;;;;1.77;1.73;;;;;;;15.38;100.00;96787.41;5018103;28;20204;-66
2022/06/25 03:31:04;;;;;;;1.97;1.87;;;;;;;15.43;100.00;96782.19;5029249;28;20935;-64
2022/06/25 03:33:33;;;;;;;2.37;2.27;;;;;;;15.31;100.00;96795.47;5008961;28;20324;-65
2022/06/25 03:36:01;;;;;;;2.23;2.13;;;;;;;15.38;100.00;96787.41;5011321;28;20278;-64
2022/06/25 03:38:31;;;;;;;2.27;2.17;;;;;;;15.34;100.00;96793.19;5026731;28;20462;-66
2022/06/25 03:43:41;;;;;;;2.77;2.50;;;;;;;15.39;100.00;96797.03;4985167;28;20322;-66
2022/06/25 03:46:10;;;;;;;1.93;1.83;;;;;;;15.53;100.00;96792.31;5025956;28;20730;-64
2022/06/25 03:48:38;;;;;;;2.40;2.30;;;;;;;15.54;100.00;96801.97;5009452;28;20222;-66
2022/06/25 03:51:06;;;;;;;1.77;1.77;;;;;;;15.55;100.00;96804.41;5006371;28;20216;-62
2022/06/25 03:53:37;;;;;;;2.03;1.93;;;;;;;15.59;100.00;96799.44;5029937;28;20571;-67
2022/06/25 03:56:06;;;;;;;2.23;2.13;;;;;;;15.72;100.00;96806.44;5022673;28;20231;-65
2022/06/25 03:58:34;;;;;;;1.83;1.70;;;;;;;15.71;100.00;96799.47;4985447;28;20223;-65
2022/06/25 04:01:03;;;;;;;2.13;2.00;;;;;;;15.86;100.00;96805.25;5024933;28;20246;-65
2022/06/25 04:03:34;;;;;;;1.80;1.70;;;;;;;15.88;100.00;96813.88;5029672;28;20985;-65
2022/06/25 04:06:02;;;;;;;2.30;2.20;;;;;;;16.05;100.00;96816.72;5009517;28;20258;-64
2022/06/25 04:08:31;;;;;;;2.00;1.90;;;;;;;15.89;100.00;96815.50;5016332;28;20428;-67
2022/06/25 04:11:00;;;;;;;1.97;1.87;;;;;;;15.90;100.00;96813.63;5026906;28;20391;-68
2022/06/25 04:13:29;;;;;;;2.30;2.20;;;;;;;15.98;100.00;96817.84;4973960;28;20824;-68
2022/06/25 04:15:58;;;;;;;2.50;2.40;;;;;;;15.95;100.00;96808.44;5026591;28;20238;-68
2022/06/25 04:18:27;;;;;;;2.03;1.93;;;;;;;16.24;100.00;96816.63;4999234;28;20617;-68
2022/06/25 04:20:55;;;;;;;1.83;1.73;;;;;;;16.39;100.00;96818.88;5008989;28;20292;-67
2022/06/25 04:23:23;;;;;;;2.03;1.93;;;;;;;16.24;100.00;96819.31;5008202;28;20762;-68
2022/06/25 04:25:51;;;;;;;2.40;2.30;;;;;;;16.16;100.00;96819.63;5027759;28;20314;-67
2022/06/25 04:31:06;;;;;;;2.30;2.20;;;;;;;16.43;100.00;96827.25;4980769;28;20280;-68
2022/06/25 04:33:35;;;;;;;1.60;1.60;;;;;;;16.40;100.00;96820.50;5029403;28;20620;-69
2022/06/25 04:36:03;;;;;;;2.00;1.80;;;;;;;16.39;100.00;96824.22;5007885;28;20539;-66
2022/06/25 04:38:31;;;;;;;1.87;1.77;;;;;;;16.46;100.00;96816.91;5008026;28;20222;-70
2022/06/25 04:40:59;;;;;;;2.20;2.17;;;;;;;16.44;100.00;96821.66;5025839;28;20571;-67
2022/06/25 04:43:29;;;;;;;2.17;2.07;;;;;;;16.45;100.00;96823.28;5027848;28;20246;-66
2022/06/25 04:45:57;;;;;;;1.73;1.63;;;;;;;16.56;100.00;96837.72;4987036;28;20321;-66
2022/06/25 04:48:25;;;;;;;2.00;1.90;;;;;;;16.57;100.00;96841.22;5028458;28;20207;-65
2022/06/25 04:50:53;;;;;;;1.30;1.30;;;;;;;16.60;100.00;96830.06;5015596;28;20342;-64
2022/06/25 04:53:22;;;;;;;1.97;1.87;;;;;;;16.83;100.00;96825.75;4998380;28;20468;-69
2022/06/25 04:55:50;;;;;;;1.90;1.80;;;;;;;16.79;100.00;96834.25;5023932;28;20568;-68
2022/06/25 04:58:18;;;;;;;1.63;1.63;;;;;;;16.84;100.00;96833.56;5025931;28;20203;-70
2022/06/25 05:00:48;;;;;;;1.77;1.67;;;;;;;17.01;100.00;96839.06;4982510;28;20773;-70
2022/06/25 05:03:17;;;;;;;1.73;1.70;;;;;;;16.90;100.00;96840.66;5025125;28;20401;-69
2022/06/25 05:05:45;;;;;;;1.93;1.70;;;;;;;17.06;100.00;96839.16;5026168;28;20318;-67
2022/06/25 05:08:16;;;;;;;1.53;1.53;;;;;;;17.07;100.00;96837.31;4976232;28;20238;-70
2022/06/25 05:10:45;;;;;;;1.60;1.47;;;;;;;17.06;100.00;96836.47;5025931;28;20276;-69
2022/06/25 05:13:13;;;;;;;2.20;1.50;;;;;;;17.13;100.00;96830.19;5009057;28;20433;-68
2022/06/25 05:15:42;;;;;;;2.00;1.90;;;;;;;17.04;100.00;96837.75;5027786;28;20230;-66
2022/06/25 05:18:13;;;;;;;1.67;1.50;;;;;;;17.21;100.00;96835.19;4935003;28;20258;-67
2022/06/25 05:20:44;;;;;;;1.47;1.47;;;;;;;16.89;100.00;96836.34;5026507;28;20315;-67
2022/06/25 05:23:13;;;;;;;1.80;1.47;;;;;;;16.90;100.00;96837.19;5027088;28;20281;-67
2022/06/25 05:25:42;;;;;;;1.90;1.80;;;;;;;16.98;100.00;96836.03;5023305;28;20422;-68
2022/06/25 05:28:10;;;;;;;1.67;1.67;;;;;;;17.08;100.00;96836.25;5024187;28;20288;-67
2022/06/25 05:30:39;;;;;;;1.83;1.73;;;;;;;16.94;100.00;96835.66;5026762;28;20447;-69
2022/06/25 05:33:07;;;;;;;2.70;2.57;;;;;;;17.09;100.00;96842.41;5026204;28;20199;-67
2022/06/25 05:35:37;;;;;;;3.50;1.83;;;;;;;17.27;100.00;96847.66;4993283;28;20455;-69
2022/06/25 05:38:07;;;;;;;2.17;2.07;;;;;;;17.21;100.00;96852.06;5028172;28;20212;-69
2022/06/25 05:40:35;;;;;;;2.10;2.00;;;;;;;17.00;100.00;96853.47;5023380;28;20329;-67
2022/06/25 05:43:03;;;;;;;1.90;1.80;;;;;;;16.94;100.00;96859.75;5027630;28;20582;-68
2022/06/25 05:45:32;;;;;;;2.17;2.00;;;;;;;17.12;100.00;96863.34;5023254;28;20247;-69
2022/06/25 05:48:00;;;;;;;2.30;2.20;;;;;;;17.07;100.00;96866.75;5028221;28;20257;-68
2022/06/25 05:50:28;;;;;;;2.87;2.47;;;;;;;17.02;100.00;96867.44;4980937;28;20445;-70
2022/06/25 05:52:58;;;;;;;2.17;1.87;;;;;;;16.95;100.00;96871.25;5023959;28;20222;-70
2022/06/25 05:55:26;;;;;;;4.60;2.07;;;;;;;17.13;100.00;96873.84;5023486;28;20968;-68
2022/06/25 05:57:55;;;;;;;2.30;2.10;;;;;;;16.93;100.00;96882.19;5024307;28;20254;-69
2022/06/25 06:00:24;;;;;;;3.23;2.10;;;;;;;16.92;100.00;96875.22;5022167;28;20200;-66
2022/06/25 06:02:52;;;;;;;2.30;2.20;;;;;;;16.89;100.00;96891.75;5024487;28;20358;-69
2022/06/25 06:05:20;;;;;;;2.10;2.00;;;;;;;16.76;100.00;96890.88;4958085;28;20599;-66
2022/06/25 06:07:48;;;;;;;2.37;2.27;;;;;;;16.96;100.00;96880.91;5025814;28;20251;-66
2022/06/25 06:10:18;;;;;;;4.83;4.53;;;;;;;17.06;100.00;96886.53;5008910;28;20627;-69
2022/06/25 06:12:46;;;;;;;3.33;3.13;;;;;;;17.20;100.00;96877.22;5028791;28;20227;-67
2022/06/25 06:15:14;;;;;;;2.60;2.40;;;;;;;17.23;100.00;96883.94;5024213;28;20889;-69
2022/06/25 06:17:43;;;;;;;2.30;2.20;;;;;;;17.41;100.00;96885.66;5028965;28;20633;-67
2022/06/25 06:20:11;;;;;;;2.30;2.20;;;;;;;17.50;100.00;96884.28;4986624;28;21847;-69
2022/06/25 06:22:40;;;;;;;2.50;2.33;;;;;;;17.57;100.00;96888.69;5029074;28;20290;-69
2022/06/25 06:25:09;;;;;;;2.50;2.30;;;;;;;17.57;100.00;96886.81;5008519;28;20536;-68
2022/06/25 06:27:38;;;;;;;2.83;2.63;;;;;;;17.67;100.00;96888.09;5029476;28;20255;-67
2022/06/25 06:30:10;;;;;;;2.70;2.37;;;;;;;17.61;100.00;96898.66;5014263;28;20254;-68
2022/06/25 06:32:38;;;;;;;2.80;2.60;;;;;;;17.65;100.00;96899.84;5027742;28;20253;-70
2022/06/25 06:35:07;;;;;;;2.73;2.60;;;;;;;17.68;100.00;96903.91;4984739;28;20236;-68
2022/06/25 06:37:35;;;;;;;2.90;2.70;;;;;;;17.65;100.00;96899.84;5029661;28;20204;-69
2022/06/25 06:40:06;;;;;;;3.47;2.57;;;;;;;17.54;100.00;96892.63;5026061;28;20218;-68
2022/06/25 06:42:34;;;;;;;2.53;2.43;;;;;;;17.74;100.00;96894.13;5031502;28;20207;-69
2022/06/25 06:45:05;;;;;;;2.53;2.40;;;;;;;18.02;100.00;96898.72;5013852;28;20553;-68
2022/06/25 06:47:33;;;;;;;2.53;2.43;;;;;;;17.90;100.00;96896.03;5029853;28;20250;-67
2022/06/25 06:50:03;;;;;;;2.60;2.40;;;;;;;18.13;100.00;96898.91;5025519;28;20420;-69
2022/06/25 06:52:34;;;;;;;3.23;2.57;;;;;;;18.25;100.00;96896.16;4986978;28;20848;-69
2022/06/25 06:55:04;;;;;;;3.00;2.90;;;;;;;18.22;100.00;96895.59;5025572;28;20265;-69
2022/06/25 06:57:33;;;;;;;3.07;2.87;;;;;;;18.26;100.00;96908.53;5023485;28;20685;-68
2022/06/25 07:00:04;;;;;;;3.07;2.87;;;;;;;18.25;100.00;96902.38;5025657;28;20334;-69
2022/06/25 07:02:34;;;;;;;2.63;2.50;;;;;;;18.18;100.00;96907.03;5014991;28;20305;-66
2022/06/25 07:05:03;;;;;;;2.87;2.40;;;;;;;18.32;100.00;96918.28;5024118;28;20277;-69
2022/06/25 07:07:31;;;;;;;2.70;2.50;;;;;;;18.21;100.00;96917.31;4985943;28;20441;-69
2022/06/25 07:10:00;;;;;;;3.57;2.80;;;;;;;18.00;100.00;96906.16;5027396;28;20425;-68
2022/06/25 07:12:28;;;;;;;3.40;3.17;;;;;;;18.02;100.00;96911.31;5027653;28;20261;-68
2022/06/25 07:14:56;;;;;;;3.40;3.20;;;;;;;18.06;100.00;96913.28;5024329;28;20719;-67
2022/06/25 07:17:24;;;;;;;3.90;3.57;;;;;;;18.11;100.00;96912.56;5016340;28;20255;-67
2022/06/25 07:19:54;;;;;;;3.53;3.33;;;;;;;18.33;100.00;96914.56;5026761;28;20261;-66
2022/06/25 07:22:22;;;;;;;3.40;3.20;;;;;;;18.33;100.00;96915.38;5029661;28;20249;-67
2022/06/25 07:24:51;;;;;;;5.33;3.00;;;;;;;18.50;100.00;96918.09;4937184;28;20613;-66
2022/06/25 07:27:20;;;;;;;2.73;2.63;;;;;;;18.49;100.00;96912.97;5025267;28;20649;-67
2022/06/25 07:29:48;;;;;;;4.60;3.10;;;;;;;18.67;100.00;96909.25;5028364;28;20280;-69
2022/06/25 07:32:16;;;;;;;2.47;2.37;;;;;;;18.92;100.00;96913.41;5024236;28;20368;-67
2022/06/25 07:34:44;;;;;;;3.90;2.70;;;;;;;19.04;100.00;96919.53;5015964;28;20328;-69
2022/06/25 07:37:14;;;;;;;3.80;3.00;;;;;;;19.21;100.00;96914.13;5024115;28;20266;-67
2022/06/25 07:39:42;;;;;;;3.07;2.87;;;;;;;19.45;100.00;96918.47;4969991;28;20303;-70
2022/06/25 07:42:10;;;;;;;2.73;2.60;;;;;;;19.56;100.00;96917.59;5024924;28;20200;-66
2022/06/25 07:44:38;;;;;;;2.80;2.60;;;;;;;19.57;100.00;96915.69;5024567;28;20527;-66
2022/06/25 07:47:06;;;;;;;2.90;2.80;;;;;;;19.56;100.00;96909.53;5027840;28;20265;-67
2022/06/25 07:51:56;;;;;;;5.93;5.57;;;;;;;19.73;100.00;96911.34;5024317;28;20216;-66
2022/06/25 07:52:24;;;;;;;2.50;2.40;;;;;;;19.61;100.00;96912.28;5022326;28;20767;-68
2022/06/25 07:54:52;;;;;;;2.87;2.67;;;;;;;19.88;100.00;96910.72;4988160;28;20326;-66
2022/06/25 07:57:20;;;;;;;2.47;2.27;;;;;;;20.12;100.00;96913.16;5025493;28;20579;-66
2022/06/25 07:59:48;;;;;;;3.17;2.67;;;;;;;20.30;100.00;96906.63;5028283;28;20287;-67
2022/06/25 08:02:16;;;;;;;4.00;2.33;;;;;;;20.62;100.00;96906.66;5026538;28;20626;-65
2022/06/25 08:04:44;;;;;;;3.20;3.00;;;;;;;21.35;100.00;96916.09;5028656;28;20262;-66
2022/06/25 08:07:13;;;;;;;3.10;3.00;;;;;;;21.69;100.00;96910.38;5007996;28;20306;-65
2022/06/25 08:09:42;;;;;;;2.77;2.60;;;;;;;21.45;100.00;96918.03;5028864;28;20328;-65
2022/06/25 08:12:10;;;;;;;3.33;3.03;;;;;;;21.61;100.00;96908.16;4969710;28;20211;-65
2022/06/25 08:14:39;;;;;;;2.33;2.23;;;;;;;21.71;100.00;96906.59;5026764;28;20524;-67
2022/06/25 08:17:07;;;;;;;3.70;3.00;;;;;;;21.25;100.00;96916.03;5023951;28;20357;-66
2022/06/25 08:19:35;;;;;;;3.23;2.90;;;;;;;21.02;100.00;96911.84;5026239;28;20878;-65
2022/06/25 08:22:04;;;;;;;2.90;2.70;;;;;;;20.59;100.00;96900.97;5026211;28;20738;-63
2022/06/25 08:24:32;;;;;;;2.90;2.80;;;;;;;20.71;100.00;96903.50;5028131;28;20220;-67
2022/06/25 08:27:02;;;;;;;3.17;2.97;;;;;;;20.86;100.00;96900.16;4977290;28;20295;-68
2022/06/25 08:29:30;;;;;;;2.40;2.30;;;;;;;20.63;100.00;96897.50;5021303;28;20805;-65
2022/06/25 08:31:58;;;;;;;3.87;2.60;;;;;;;20.14;100.00;96901.06;5028969;28;20389;-67
2022/06/25 08:34:27;;;;;;;2.83;2.73;;;;;;;20.51;100.00;96902.25;5027414;28;20258;-66
2022/06/25 08:36:55;;;;;;;2.60;2.50;;;;;;;20.52;100.00;96890.44;5029638;28;20293;-63
2022/06/25 08:39:23;;;;;;;2.20;2.10;;;;;;;20.08;100.00;96892.16;5027720;28;20563;-63
2022/06/25 08:41:51;;;;;;;2.90;2.80;;;;;;;19.95;100.00;96895.22;4986436;28;20281;-65
2022/06/25 08:44:21;;;;;;;2.93;2.67;;;;;;;19.79;100.00;96899.56;5008701;28;20239;-63
2022/06/25 08:46:50;;;;;;;2.47;2.37;;;;;;;19.94;100.00;96899.81;5029005;28;20322;-60
2022/06/25 08:49:19;;;;;;;2.80;2.70;;;;;;;19.88;100.00;96895.38;5009772;28;20930;-64
2022/06/25 08:51:48;;;;;;;2.10;2.00;;;;;;;20.22;100.00;96900.63;5026684;28;20746;-64
2022/06/25 08:54:16;;;;;;;3.20;2.60;;;;;;;20.13;100.00;96907.53;5020211;28;20851;-63
2022/06/25 08:56:45;;;;;;;2.60;2.40;;;;;;;20.64;100.00;96901.00;4981300;28;20330;-65
2022/06/25 08:59:16;;;;;;;3.63;3.33;;;;;;;21.06;100.00;96892.22;5021886;28;20453;-63
2022/06/25 09:01:46;;;;;;;2.60;2.40;;;;;;;21.36;100.00;96890.78;5026747;28;20215;-66
2022/06/25 09:04:14;;;;;;;2.23;2.13;;;;;;;21.13;100.00;96896.56;5023730;28;20737;-65
2022/06/25 09:06:43;;;;;;;2.60;2.40;;;;;;;21.65;100.00;96893.09;5027190;28;20695;-64
2022/06/25 09:09:12;;;;;;;3.83;3.53;;;;;;;22.05;100.00;96882.75;5023630;28;20639;-62
2022/06/25 09:11:55;;;;;;;2.70;2.17;;;;;;;22.30;100.00;96886.56;4982543;28;20231;-64
2022/06/25 09:14:27;;;;;;;2.20;2.10;;;;;;;22.77;100.00;96887.44;5023600;28;20264;-66
2022/06/25 09:16:58;;;;;;;2.53;2.43;;;;;;;22.74;100.00;96877.19;5026133;28;20230;-61
2022/06/25 09:19:31;;;;;;;2.40;2.30;;;;;;;22.99;100.00;96878.25;5024713;28;20364;-64
2022/06/25 09:21:59;;;;;;;2.83;2.40;;;;;;;23.00;100.00;96877.19;5027577;28;20211;-62
2022/06/25 09:24:46;;;;;;;2.37;2.27;;;;;;;22.57;100.00;96887.47;5026684;28;20595;-66
2022/06/25 09:27:16;;;;;;;2.27;2.17;;;;;;;22.90;100.00;96885.28;4982764;28;21339;-62
2022/06/25 09:29:48;;;;;;;2.73;2.57;;;;;;;23.15;100.00;96891.72;5026016;28;20231;-64
2022/06/25 09:32:18;;;;;;;2.30;2.20;;;;;;;22.93;100.00;96890.16;4976041;28;20262;-64
2022/06/25 09:34:47;;;;;;;3.17;3.07;;;;;;;22.45;100.00;96888.47;5009217;28;20518;-66
2022/06/25 09:37:17;;;;;;;3.47;2.27;;;;;;;22.60;100.00;96890.41;5027020;28;20272;-65
2022/06/25 09:39:46;;;;;;;2.27;2.20;;;;;;;23.08;100.00;96887.44;5010746;28;20479;-62
2022/06/25 09:42:22;;;;;;;2.50;2.40;;;;;;;23.78;98.83;96891.31;5029372;28;20207;-61
2022/06/25 09:44:59;;;;;;;2.43;1.83;;;;;;;24.13;85.07;96886.06;5026848;28;20394;-64
2022/06/25 09:47:29;;;;;;;1.97;1.87;;;;;;;24.44;85.39;96883.16;4984738;28;20249;-61
2022/06/25 09:50:04;;;;;;;1.90;1.90;;;;;;;24.39;89.42;96891.28;5028714;28;20252;-59
2022/06/25 09:52:33;;;;;;;1.53;1.53;;;;;;;24.27;92.35;96876.22;5028566;28;20207;-61
2022/06/25 09:55:01;;;;;;;2.27;2.03;;;;;;;24.12;94.42;96873.59;5019138;28;20767;-62
2022/06/25 09:57:31;;;;;;;1.93;1.90;;;;;;;23.79;96.85;96873.19;5026241;28;20278;-63
2022/06/25 10:00:01;;;;;;;2.57;2.40;;;;;;;23.58;95.37;96867.88;5029931;28;20218;-62
2022/06/25 10:02:32;;;;;;;1.97;1.87;;;;;;;23.23;91.32;96872.25;4996957;28;20203;-63
2022/06/25 10:05:02;;;;;;;2.13;1.93;;;;;;;23.31;97.44;96877.16;5029958;28;20222;-65
2022/06/25 10:10:20;;;;;;;3.13;2.80;;;;;;;24.52;91.78;96870.91;5018445;28;20457;-62
2022/06/25 10:12:49;;;;;;;2.10;1.80;;;;;;;24.78;82.67;96862.59;5027595;28;20762;-63
2022/06/25 10:15:18;;;;;;;1.57;1.57;;;;;;;24.33;88.39;96862.63;5031258;28;20231;-61
2022/06/25 10:17:49;;;;;;;2.00;1.90;;;;;;;24.52;83.81;96866.31;4984207;28;21102;-65
2022/06/25 10:20:19;;;;;;;1.97;1.87;;;;;;;24.18;86.11;96863.53;5030459;28;20231;-61
2022/06/25 10:22:49;;;;;;;2.00;1.80;;;;;;;24.18;86.29;96861.66;5028589;28;20207;-63
2022/06/25 10:25:19;;;;;;;1.63;1.60;;;;;;;23.74;94.03;96865.13;5030673;28;20243;-59
2022/06/25 10:27:49;;;;;;;2.47;1.63;;;;;;;23.54;95.02;96869.50;5014797;28;20727;-62
2022/06/25 10:30:36;;;;;;;2.40;2.30;;;;;;;22.88;100.00;96869.34;5028610;28;20407;-61
2022/06/25 10:33:06;;;;;;;2.07;1.90;;;;;;;22.45;100.00;96866.88;5029530;28;20238;-65
2022/06/25 10:35:40;;;;;;;2.57;2.47;;;;;;;22.85;100.00;96864.50;4980367;28;21054;-60
2022/06/25 10:38:10;;;;;;;2.00;1.90;;;;;;;23.20;100.00;96862.00;5031525;28;20834;-64
2022/06/25 10:40:53;;;;;;;2.30;2.10;;;;;;;23.33;100.00;96863.34;5012010;28;21003;-63
2022/06/25 10:43:45;;;;;;;2.13;2.03;;;;;;;23.20;99.62;96868.22;5026672;28;20249;-62
2022/06/25 10:46:21;;;;;;;2.17;2.07;;;;;;;23.19;98.62;96863.91;5030659;28;20583;-66
2022/06/25 10:48:58;;;;;;;1.90;1.80;;;;;;;23.44;100.00;96861.44;5027265;28;20261;-63
2022/06/25 10:51:31;;;;;;;1.87;1.87;;;;;;;23.33;98.02;96847.13;4986395;28;20594;-62
2022/06/25 10:54:00;;;;;;;1.80;1.80;;;;;;;23.52;95.72;96850.03;5030364;28;20204;-66
2022/06/25 10:56:32;;;;;;;2.20;2.10;;;;;;;23.26;95.31;96842.84;5013895;28;20409;-63
2022/06/25 10:59:00;;;;;;;1.67;1.67;;;;;;;23.72;94.13;96838.34;5029130;28;20196;-63
2022/06/25 11:01:31;;;;;;;2.23;1.80;;;;;;;23.86;87.54;96838.53;5027106;28;20291;-60
2022/06/25 11:04:06;;;;;;;2.07;1.97;;;;;;;23.61;91.75;96837.56;5029254;28;20207;-64
2022/06/25 11:06:36;;;;;;;1.40;1.40;;;;;;;23.72;91.72;96837.53;4981968;28;20292;-62
2022/06/25 11:09:10;;;;;;;1.93;1.83;;;;;;;23.71;93.24;96828.59;5026492;28;20231;-61
2022/06/25 11:11:39;;;;;;;3.67;1.83;;;;;;;23.56;91.58;96824.06;5010084;28;20919;-64
2022/06/25 11:14:17;;;;;;;2.07;1.97;;;;;;;23.10;92.46;96830.41;5028562;28;20254;-60
2022/06/25 11:16:45;;;;;;;1.80;1.70;;;;;;;23.21;96.90;96823.91;5025970;28;20471;-65
2022/06/25 11:19:15;;;;;;;1.63;1.53;;;;;;;23.15;99.94;96825.00;5028034;28;20242;-62
2022/06/25 11:21:45;;;;;;;1.67;1.63;;;;;;;23.09;100.00;96829.59;4984937;28;20308;-65
2022/06/25 11:24:18;;;;;;;1.77;1.67;;;;;;;23.64;93.81;96825.41;5029857;28;20273;-63
2022/06/25 11:29:36;;;;;;;1.60;1.60;;;;;;;24.59;90.77;96821.84;5025591;28;20306;-60
2022/06/25 11:32:06;;;;;;;2.47;1.63;;;;;;;24.84;88.81;96821.66;5027972;28;20348;-63
2022/06/25 11:34:36;;;;;;;1.97;1.70;;;;;;;25.23;81.89;96819.09;5026510;28;20706;-62
2022/06/25 11:37:07;;;;;;;1.87;1.77;;;;;;;25.69;80.18;96815.00;4988389;28;20211;-63
2022/06/25 11:39:36;;;;;;;1.60;1.60;;;;;;;25.47;76.04;96816.38;4965099;28;20654;-63
2022/06/25 11:42:09;;;;;;;1.83;1.73;;;;;;;26.28;72.30;96818.28;5023381;28;20730;-64
2022/06/25 11:44:42;;;;;;;1.87;1.77;;;;;;;25.75;67.72;96813.84;5029146;28;20235;-64
2022/06/25 11:47:13;;;;;;;1.50;1.50;;;;;;;26.05;66.31;96811.81;5020941;28;20587;-64
2022/06/25 11:49:44;;;;;;;2.40;1.53;;;;;;;26.04;67.01;96810.19;5027360;28;20318;-60
2022/06/25 11:52:13;;;;;;;1.60;1.60;;;;;;;25.80;69.79;96813.81;5015002;28;20860;-64
2022/06/25 11:54:46;;;;;;;2.17;1.80;;;;;;;25.50;72.02;96812.28;5008582;28;20239;-61
2022/06/25 11:57:18;;;;;;;1.87;1.80;;;;;;;26.03;66.79;96807.78;5020008;28;20204;-64